Time;durP1;ratioP1;P1;durP2;ratioP2;P2;SDS_P1;SDS_P2;PMS_P1;PMS_P2;Temp;Humidity;BMP_temperature;BMP_pressure;BME280_temperature;BME280_humidity;BME280_pressure;Samples;Min_cycle;Max_cycle;Signal;HPM_P1;HPM_P2
2022/04/10 00:01:06;;;;;;;;;;;;;;;;;;4825818;29;19984;-76
2022/04/10 00:03:32;;;;;;;;;;;;;;;;;;4826024;29;20394;-75
2022/04/10 00:05:58;;;;;;;;;;;;;;;;;;4825193;29;19973;-72
2022/04/10 00:08:24;;;;;;;;;;;;;;;;;;4825670;29;19972;-67
2022/04/10 00:10:50;;;;;;;;;;;;;;;;;;4825551;29;19997;-67
2022/04/10 00:13:16;;;;;;;;;;;;;;;;;;4809094;29;19915;-75
2022/04/10 00:15:42;;;;;;;;;;;;;;;;;;4825443;29;19909;-67
2022/04/10 00:18:08;;;;;;;;;;;;;;;;;;4825442;29;20071;-67
2022/04/10 00:20:34;;;;;;;;;;;;;;;;;;4825684;29;20380;-67
2022/04/10 00:23:00;;;;;;;;;;;;;;;;;;4825263;29;19917;-67
2022/04/10 00:25:26;;;;;;;;;;;;;;;;;;4825614;29;19965;-75
2022/04/10 00:27:52;;;;;;;;;;;;;;;;;;4825305;29;20286;-65
2022/04/10 00:30:18;;;;;;;;;;;;;;;;;;4808849;29;19944;-70
2022/04/10 00:32:44;;;;;;;;;;;;;;;;;;4825217;29;19909;-72
2022/04/10 00:35:10;;;;;;;;;;;;;;;;;;4825510;29;19909;-69
2022/04/10 00:37:36;;;;;;;;;;;;;;;;;;4825217;29;19916;-69
2022/04/10 00:40:02;;;;;;;;;;;;;;;;;;4825205;29;19916;-67
2022/04/10 00:42:28;;;;;;;;;;;;;;;;;;4825318;29;20374;-72
2022/04/10 00:44:54;;;;;;;;;;;;;;;;;;4808577;29;19920;-66
2022/04/10 00:47:20;;;;;;;;;;;;;;;;;;4808693;29;19917;-66
2022/04/10 00:49:46;;;;;;;;;;;;;;;;;;4824956;29;19913;-65
2022/04/10 00:52:12;;;;;;;;;;;;;;;;;;4824856;29;19920;-66
2022/04/10 00:54:38;;;;;;;;;;;;;;;;;;4825220;29;20271;-66
2022/04/10 00:57:04;;;;;;;;;;;;;;;;;;4825259;29;20361;-66
2022/04/10 00:59:30;;;;;;;;;;;;;;;;;;4825041;29;19996;-66
2022/04/10 01:01:56;;;;;;;;;;;;;;;;;;4825215;29;19944;-67
2022/04/10 01:04:21;;;;;;;;;;;;;;;;;;4824835;29;19946;-75
2022/04/10 01:06:48;;;;;;;;;;;;;;;;;;4824959;29;19913;-74
2022/04/10 01:09:14;;;;;;;;;;;;;;;;;;4824890;29;19959;-66
2022/04/10 01:11:40;;;;;;;;;;;;;;;;;;4825097;29;19908;-67
2022/04/10 01:14:06;;;;;;;;;;;;;;;;;;4824876;29;19909;-71
2022/04/10 01:16:32;;;;;;;;;;;;;;;;;;4824691;29;19952;-66
2022/04/10 01:18:58;;;;;;;;;;;;;;;;;;4826726;29;19912;-66
2022/04/10 01:21:24;;;;;;;;;;;;;;;;;;4828475;29;19916;-67
2022/04/10 01:23:50;;;;;;;;;;;;;;;;;;4828351;29;20358;-67
2022/04/10 01:26:16;;;;;;;;;;;;;;;;;;4828120;29;19950;-66
2022/04/10 01:28:42;;;;;;;;;;;;;;;;;;4828073;29;19909;-75
2022/04/10 01:31:08;;;;;;;;;;;;;;;;;;4828303;29;20286;-68
2022/04/10 01:33:34;;;;;;;;;;;;;;;;;;4828234;29;19916;-67
2022/04/10 01:36:01;;;;;;;;;;;;;;;;;;4827896;29;19915;-66
2022/04/10 01:38:28;;;;;;;;;;;;;;;;;;4827951;29;20007;-67
2022/04/10 01:40:54;;;;;;;;;;;;;;;;;;4827823;29;20414;-66
2022/04/10 01:43:20;;;;;;;;;;;;;;;;;;4827910;29;19917;-67
2022/04/10 01:45:46;;;;;;;;;;;;;;;;;;4827847;29;20278;-74
2022/04/10 01:48:12;;;;;;;;;;;;;;;;;;4811570;29;20370;-74
2022/04/10 01:50:38;;;;;;;;;;;;;;;;;;4827495;29;19921;-74
2022/04/10 01:53:05;;;;;;;;;;;;;;;;;;4827673;29;19915;-74
2022/04/10 01:55:31;;;;;;;;;;;;;;;;;;4827597;29;19915;-74
2022/04/10 01:57:57;;;;;;;;;;;;;;;;;;4827520;29;19999;-67
2022/04/10 02:00:23;;;;;;;;;;;;;;;;;;4827425;29;20007;-74
2022/04/10 02:02:49;;;;;;;;;;;;;;;;;;4827605;29;19939;-67
2022/04/10 02:05:15;;;;;;;;;;;;;;;;;;4827752;29;19909;-67
2022/04/10 02:07:41;;;;;;;;;;;;;;;;;;4827446;29;19916;-67
2022/04/10 02:10:07;;;;;;;;;;;;;;;;;;4827607;29;20287;-69
2022/04/10 02:12:33;;;;;;;;;;;;;;;;;;4827351;29;19909;-66
2022/04/10 02:15:00;;;;;;;;;;;;;;;;;;4827521;29;19948;-69
2022/04/10 02:17:26;;;;;;;;;;;;;;;;;;4827579;29;19912;-74
2022/04/10 02:19:52;;;;;;;;;;;;;;;;;;4827193;29;19909;-73
2022/04/10 02:22:18;;;;;;;;;;;;;;;;;;4827162;29;19908;-74
2022/04/10 02:24:44;;;;;;;;;;;;;;;;;;4827084;29;20335;-71
2022/04/10 02:27:10;;;;;;;;;;;;;;;;;;4827094;29;19909;-67
2022/04/10 02:29:36;;;;;;;;;;;;;;;;;;4826781;29;20402;-74
2022/04/10 02:32:02;;;;;;;;;;;;;;;;;;4827055;29;19909;-74
2022/04/10 02:34:28;;;;;;;;;;;;;;;;;;4827255;29;19919;-74
2022/04/10 02:36:54;;;;;;;;;;;;;;;;;;4826985;29;19969;-75
2022/04/10 02:39:20;;;;;;;;;;;;;;;;;;4826904;29;19909;-73
2022/04/10 02:41:46;;;;;;;;;;;;;;;;;;4826939;29;19991;-75
2022/04/10 02:44:12;;;;;;;;;;;;;;;;;;4826815;29;20003;-66
2022/04/10 02:46:38;;;;;;;;;;;;;;;;;;4826835;29;20429;-72
2022/04/10 02:49:04;;;;;;;;;;;;;;;;;;4826800;29;19908;-74
2022/04/10 02:51:30;;;;;;;;;;;;;;;;;;4826547;29;19951;-67
2022/04/10 02:53:56;;;;;;;;;;;;;;;;;;4826887;29;19908;-75
2022/04/10 02:56:22;;;;;;;;;;;;;;;;;;4826957;29;20422;-67
2022/04/10 02:58:48;;;;;;;;;;;;;;;;;;4826615;29;19913;-71
2022/04/10 03:01:14;;;;;;;;;;;;;;;;;;4826592;29;19943;-75
2022/04/10 03:03:40;;;;;;;;;;;;;;;;;;4826449;29;20419;-67
2022/04/10 03:06:06;;;;;;;;;;;;;;;;;;4826526;29;19908;-75
2022/04/10 03:08:32;;;;;;;;;;;;;;;;;;4826499;29;19916;-75
2022/04/10 03:10:58;;;;;;;;;;;;;;;;;;4826497;29;19920;-75
2022/04/10 03:13:24;;;;;;;;;;;;;;;;;;4826379;29;19908;-74
2022/04/10 03:15:50;;;;;;;;;;;;;;;;;;4810009;29;19913;-66
2022/04/10 03:18:16;;;;;;;;;;;;;;;;;;4826629;29;19909;-73
2022/04/10 03:20:42;;;;;;;;;;;;;;;;;;4810058;29;19908;-74
2022/04/10 03:23:10;;;;;;;;;;;;;;;;;;4809841;29;19913;-66
2022/04/10 03:25:36;;;;;;;;;;;;;;;;;;4826199;29;19908;-67
2022/04/10 03:28:02;;;;;;;;;;;;;;;;;;4826446;29;19965;-67
2022/04/10 03:30:28;;;;;;;;;;;;;;;;;;4826301;29;20007;-66
2022/04/10 03:32:54;;;;;;;;;;;;;;;;;;4826074;29;20011;-75
2022/04/10 03:35:20;;;;;;;;;;;;;;;;;;4826065;29;20391;-67
2022/04/10 03:37:46;;;;;;;;;;;;;;;;;;4826364;29;19913;-75
2022/04/10 03:40:12;;;;;;;;;;;;;;;;;;4825683;29;20282;-74
2022/04/10 03:42:39;;;;;;;;;;;;;;;;;;4825907;29;19969;-75
2022/04/10 03:45:05;;;;;;;;;;;;;;;;;;4825897;29;19917;-66
2022/04/10 03:47:31;;;;;;;;;;;;;;;;;;4826227;29;20419;-74
2022/04/10 03:49:57;;;;;;;;;;;;;;;;;;4825729;29;19909;-74
2022/04/10 03:52:23;;;;;;;;;;;;;;;;;;4825894;29;19953;-66
2022/04/10 03:54:49;;;;;;;;;;;;;;;;;;4825786;29;20185;-69
2022/04/10 03:57:15;;;;;;;;;;;;;;;;;;4825768;29;19952;-75
2022/04/10 03:59:41;;;;;;;;;;;;;;;;;;4825725;29;20022;-75
2022/04/10 04:02:07;;;;;;;;;;;;;;;;;;4825998;29;19909;-75
2022/04/10 04:04:33;;;;;;;;;;;;;;;;;;4809090;29;19924;-73
2022/04/10 04:06:59;;;;;;;;;;;;;;;;;;4826191;29;20363;-73
2022/04/10 04:09:25;;;;;;;;;;;;;;;;;;4825823;29;19909;-67
2022/04/10 04:11:51;;;;;;;;;;;;;;;;;;4825845;29;20263;-67
2022/04/10 04:14:19;;;;;;;;;;;;;;;;;;4825840;29;19909;-74
2022/04/10 04:16:45;;;;;;;;;;;;;;;;;;4809052;29;20000;-75
2022/04/10 04:19:11;;;;;;;;;;;;;;;;;;4825471;29;20270;-67
2022/04/10 04:21:37;;;;;;;;;;;;;;;;;;4825458;29;19936;-74
2022/04/10 04:24:03;;;;;;;;;;;;;;;;;;4825646;29;19990;-74
2022/04/10 04:26:29;;;;;;;;;;;;;;;;;;4825369;29;20358;-67
2022/04/10 04:28:55;;;;;;;;;;;;;;;;;;4825366;29;19909;-66
2022/04/10 04:31:21;;;;;;;;;;;;;;;;;;4825356;29;19913;-66
2022/04/10 04:33:47;;;;;;;;;;;;;;;;;;4825335;29;19915;-74
2022/04/10 04:36:13;;;;;;;;;;;;;;;;;;4825470;29;19965;-66
2022/04/10 04:38:39;;;;;;;;;;;;;;;;;;4825164;29;20326;-74
2022/04/10 04:41:08;;;;;;;;;;;;;;;;;;4825118;29;19909;-66
2022/04/10 04:43:34;;;;;;;;;;;;;;;;;;4825160;29;19924;-75
2022/04/10 04:46:00;;;;;;;;;;;;;;;;;;4825231;29;19909;-67
2022/04/10 04:48:26;;;;;;;;;;;;;;;;;;4825153;29;19957;-75
2022/04/10 04:50:52;;;;;;;;;;;;;;;;;;4824953;29;19924;-67
2022/04/10 04:53:18;;;;;;;;;;;;;;;;;;4825541;29;20363;-75
2022/04/10 04:55:44;;;;;;;;;;;;;;;;;;4825052;29;20399;-74
2022/04/10 04:58:10;;;;;;;;;;;;;;;;;;4825015;29;19909;-67
2022/04/10 05:00:36;;;;;;;;;;;;;;;;;;4824993;29;19999;-67
2022/04/10 05:03:02;;;;;;;;;;;;;;;;;;4825154;29;19916;-75
2022/04/10 05:05:28;;;;;;;;;;;;;;;;;;4824915;29;20371;-74
2022/04/10 05:07:54;;;;;;;;;;;;;;;;;;4824911;29;20328;-74
2022/04/10 05:10:20;;;;;;;;;;;;;;;;;;4825126;29;19909;-66
2022/04/10 05:12:46;;;;;;;;;;;;;;;;;;4825424;29;19944;-75
2022/04/10 05:15:12;;;;;;;;;;;;;;;;;;4824832;29;19947;-66
2022/04/10 05:17:38;;;;;;;;;;;;;;;;;;4825000;29;19909;-75
2022/04/10 05:20:05;;;;;;;;;;;;;;;;;;4824711;29;20422;-75
2022/04/10 05:22:31;;;;;;;;;;;;;;;;;;4825789;29;19916;-66
2022/04/10 05:24:57;;;;;;;;;;;;;;;;;;4824715;29;19917;-75
2022/04/10 05:27:23;;;;;;;;;;;;;;;;;;4808647;29;20311;-75
2022/04/10 05:29:49;;;;;;;;;;;;;;;;;;4824774;29;19912;-70
2022/04/10 05:32:16;;;;;;;;;;;;;;;;;;4824631;29;19916;-74
2022/04/10 05:34:43;;;;;;;;;;;;;;;;;;4824568;29;19908;-66
2022/04/10 05:37:09;;;;;;;;;;;;;;;;;;4824559;29;19909;-66
2022/04/10 05:39:35;;;;;;;;;;;;;;;;;;4824763;29;19941;-75
2022/04/10 05:42:01;;;;;;;;;;;;;;;;;;4824545;29;19916;-74
2022/04/10 05:44:27;;;;;;;;;;;;;;;;;;4808110;29;19917;-66
2022/04/10 05:46:53;;;;;;;;;;;;;;;;;;4824518;29;19909;-76
2022/04/10 05:49:19;;;;;;;;;;;;;;;;;;4824491;29;19908;-67
2022/04/10 05:51:45;;;;;;;;;;;;;;;;;;4824356;29;19921;-66
2022/04/10 05:54:13;;;;;;;;;;;;;;;;;;4824554;29;20244;-75
2022/04/10 05:56:39;;;;;;;;;;;;;;;;;;4824891;29;19913;-66
2022/04/10 05:59:05;;;;;;;;;;;;;;;;;;4825196;29;19982;-67
2022/04/10 06:01:31;;;;;;;;;;;;;;;;;;4824356;29;19924;-66
2022/04/10 06:03:57;;;;;;;;;;;;;;;;;;4824779;29;20286;-74
2022/04/10 06:06:23;;;;;;;;;;;;;;;;;;4827680;29;19909;-66
2022/04/10 06:08:49;;;;;;;;;;;;;;;;;;4827688;29;19916;-71
2022/04/10 06:11:15;;;;;;;;;;;;;;;;;;4827370;29;19916;-76
2022/04/10 06:13:41;;;;;;;;;;;;;;;;;;4827276;29;19909;-66
2022/04/10 06:16:07;;;;;;;;;;;;;;;;;;4827363;29;19909;-65
2022/04/10 06:18:33;;;;;;;;;;;;;;;;;;4827286;29;20341;-74
2022/04/10 06:20:59;;;;;;;;;;;;;;;;;;4827259;29;19938;-68
2022/04/10 06:23:25;;;;;;;;;;;;;;;;;;4827263;29;19917;-70
2022/04/10 06:25:52;;;;;;;;;;;;;;;;;;4827136;29;20351;-72
2022/04/10 06:28:18;;;;;;;;;;;;;;;;;;4810828;29;19916;-71
2022/04/10 06:30:45;;;;;;;;;;;;;;;;;;4827032;29;19916;-74
2022/04/10 06:33:11;;;;;;;;;;;;;;;;;;4826964;29;19915;-67
2022/04/10 06:35:39;;;;;;;;;;;;;;;;;;4827273;29;19909;-65
2022/04/10 06:38:05;;;;;;;;;;;;;;;;;;4826887;29;19909;-66
2022/04/10 06:40:31;;;;;;;;;;;;;;;;;;4826906;29;19915;-66
2022/04/10 06:42:57;;;;;;;;;;;;;;;;;;4827057;29;19909;-74
2022/04/10 06:45:23;;;;;;;;;;;;;;;;;;4827096;29;20289;-75
2022/04/10 06:47:48;;;;;;;;;;;;;;;;;;4834442;29;19917;-72
2022/04/10 06:50:14;;;;;;;;;;;;;;;;;;4827690;29;19917;-76
2022/04/10 06:52:40;;;;;;;;;;;;;;;;;;4826675;29;19959;-69
2022/04/10 06:55:06;;;;;;;;;;;;;;;;;;4825111;29;19912;-75
2022/04/10 06:57:32;;;;;;;;;;;;;;;;;;4825258;29;19958;-66
2022/04/10 06:59:58;;;;;;;;;;;;;;;;;;4826349;29;19920;-67
2022/04/10 07:02:24;;;;;;;;;;;;;;;;;;4826374;29;20419;-74
2022/04/10 07:04:50;;;;;;;;;;;;;;;;;;4826262;29;19916;-67
2022/04/10 07:07:16;;;;;;;;;;;;;;;;;;4826253;29;20255;-74
2022/04/10 07:09:42;;;;;;;;;;;;;;;;;;4826147;29;19912;-75
2022/04/10 07:12:08;;;;;;;;;;;;;;;;;;4826077;29;19999;-75
2022/04/10 07:14:34;;;;;;;;;;;;;;;;;;4826033;29;19916;-72
2022/04/10 07:17:00;;;;;;;;;;;;;;;;;;4823867;29;19916;-70
2022/04/10 07:19:26;;;;;;;;;;;;;;;;;;4826063;29;19908;-74
2022/04/10 07:24:36;;;;;;;;;;;;;;;;;;4825954;29;19928;-75
2022/04/10 07:27:02;;;;;;;;;;;;;;;;;;4825942;29;19908;-66
2022/04/10 07:29:28;;;;;;;;;;;;;;;;;;4825260;29;19961;-73
2022/04/10 07:31:54;;;;;;;;;;;;;;;;;;4826296;29;19917;-76
2022/04/10 07:34:20;;;;;;;;;;;;;;;;;;4826041;29;19951;-74
2022/04/10 07:36:46;;;;;;;;;;;;;;;;;;4826044;29;20366;-76
2022/04/10 07:39:12;;;;;;;;;;;;;;;;;;4826078;29;19909;-66
2022/04/10 07:41:38;;;;;;;;;;;;;;;;;;4825974;29;19985;-69
2022/04/10 07:44:04;;;;;;;;;;;;;;;;;;4825652;29;19917;-67
2022/04/10 07:49:15;;;;;;;;;;;;;;;;;;4826000;29;19962;-75
2022/04/10 07:51:41;;;;;;;;;;;;;;;;;;4825674;29;19927;-66
2022/04/10 07:54:07;;;;;;;;;;;;;;;;;;4826029;29;19908;-77
2022/04/10 07:56:33;;;;;;;;;;;;;;;;;;4825882;29;20244;-71
2022/04/10 07:58:58;;;;;;;;;;;;;;;;;;4825637;29;19913;-76
2022/04/10 08:01:24;;;;;;;;;;;;;;;;;;4825613;29;19964;-67
2022/04/10 08:03:52;;;;;;;;;;;;;;;;;;4825830;29;19920;-67
2022/04/10 08:06:18;;;;;;;;;;;;;;;;;;4825977;29;20358;-68
2022/04/10 08:08:45;;;;;;;;;;;;;;;;;;4826075;29;19909;-68
2022/04/10 08:11:11;;;;;;;;;;;;;;;;;;4826562;29;20381;-68
2022/04/10 08:13:37;;;;;;;;;;;;;;;;;;4826366;29;19966;-69
2022/04/10 08:16:03;;;;;;;;;;;;;;;;;;4826515;29;19908;-68
2022/04/10 08:18:29;;;;;;;;;;;;;;;;;;4824463;29;19949;-69
2022/04/10 08:20:55;;;;;;;;;;;384.90;1971.20;;;;;;4825344;29;20309;-69
2022/04/10 08:23:20;;;;;;;;;;;384.70;1945.60;;;;;;4825268;29;19920;-72
2022/04/10 08:25:46;;;;;;;;;;;384.40;1971.20;;;;;;4833710;29;19909;-76
2022/04/10 08:28:12;;;;;;;;;;;;;;;;;;4834634;29;19913;-74
2022/04/10 08:30:40;;;;;;;;;;;358.80;2201.60;;;;;;4834308;29;19913;-73
2022/04/10 08:33:07;;;;;;;;;;;;;;;;;;4832038;29;19988;-74
2022/04/10 08:35:33;;;;;;;;;;;;;;;;;;4826667;29;19913;-69
2022/04/10 08:37:59;;;;;;;;;;;;;;;;;;4843258;29;19918;-72
2022/04/10 08:40:26;;;;;;;;;;;358.80;1996.80;;;;;;4843244;29;19908;-76
2022/04/10 08:42:54;;;;;;;;;;;384.20;1971.20;;;;;;4843132;29;19999;-75
2022/04/10 08:45:23;;;;;;;;;;;410.10;1920.00;;;;;;4843435;29;20323;-74
2022/04/10 08:47:49;;;;;;;;;;;461.20;1766.40;;;;;;4843262;29;19908;-69
2022/04/10 08:50:15;;;;;;;;;;;460.90;1664.00;;;;;;4842943;29;19926;-70
2022/04/10 08:52:42;;;;;;;;;;;461.20;1612.80;;;;;;4843094;29;19908;-69
2022/04/10 08:55:08;;;;;;;;;;;;;;;;;;4826181;29;20364;-69
2022/04/10 08:57:33;;;;;;;;;;;486.60;1561.60;;;;;;4841445;29;19935;-68
2022/04/10 08:59:59;;;;;;;10.82;9.57;;;486.60;1510.40;;;;;;4840960;29;19994;-68
2022/04/10 09:02:25;;;;;;;7.30;5.80;;;486.40;1536.00;;;;;;4842126;29;20014;-70
2022/04/10 09:04:51;;;;;;;;;;;461.50;1561.60;;;;;;4842775;29;20373;-75
2022/04/10 09:07:16;;;;;;;;;;;461.10;1638.40;;;;;;4842875;29;19909;-69
2022/04/10 09:09:51;;;;;;;;;;;461.40;1664.00;;;;;;4842739;29;19908;-68
2022/04/10 09:12:18;;;;;;;;;;;460.80;1587.20;;;;;;4843158;29;19973;-67
2022/04/10 09:14:44;;;;;;;;;;;460.80;1664.00;;;;;;4842787;29;20429;-68
2022/04/10 09:17:16;;;;;;;;;;;435.90;1664.00;;;;;;4842836;29;19991;-67
2022/04/10 09:19:52;;;;;;;;;;;436.10;1689.60;;;;;;4842845;29;19957;-67
2022/04/10 09:22:27;;;;;;;;;;;461.20;1664.00;;;;;;4842329;29;19964;-68
2022/04/10 09:25:11;;;;;;;;;;;461.20;1638.40;;;;;;4841841;29;20267;-68
2022/04/10 09:27:38;;;;;;;;;;;435.90;1612.80;;;;;;4841903;29;19908;-69
2022/04/10 09:30:08;;;;;;;;;;;410.40;1612.80;;;;;;4842199;29;19909;-67
2022/04/10 09:32:34;;;;;;;;;;;;;;;;;;4842010;29;19947;-67
2022/04/10 09:35:00;;;;;;;;;;;;;;;;;;4841452;29;19952;-67
2022/04/10 09:37:27;;;;;;;;;;;435.60;1612.80;;;;;;4842822;29;19915;-67
2022/04/10 09:39:53;;;;;;;;;;;435.70;1612.80;;;;;;4844865;29;19912;-68
2022/04/10 09:42:29;;;;;;;;;;;436.10;1510.40;;;;;;4846554;29;20007;-68
2022/04/10 09:44:55;;;;;;;;;;;460.90;1510.40;;;;;;4829607;29;19971;-68
2022/04/10 09:47:24;;;;;;;;;;;460.80;1536.00;;;;;;4829555;29;20343;-68
2022/04/10 09:49:52;;;;;;;;;;;435.40;1484.80;;;;;;4846141;29;20298;-67
2022/04/10 09:52:19;;;;;;;;;;;;;;;;;;4846307;29;20322;-67
2022/04/10 09:54:50;;;;;;;;;;;410.10;1510.40;;;;;;4846309;29;20048;-68
2022/04/10 09:57:17;;;;;;;;;;;409.80;1484.80;;;;;;4846025;29;19908;-68
2022/04/10 09:59:43;;;;;;;;;;;;;;;;;;4845972;29;19908;-67
2022/04/10 10:02:15;;;;;;;;;;;410.30;1561.60;;;;;;4845954;29;19912;-68
2022/04/10 10:04:42;;;;;;;;;;;409.80;1536.00;;;;;;4842192;29;20282;-78
2022/04/10 10:07:08;;;;;;;;;;;;;;;;;;4844053;29;20160;-68
2022/04/10 10:09:34;;;;;;;;;;;;;;;;;;4842677;29;19908;-67
2022/04/10 10:12:01;;;;;;;;;;;410.40;1510.40;;;;;;4844125;29;19908;-68
2022/04/10 10:14:28;;;;;;;;;;;435.20;1484.80;;;;;;4843869;29;19962;-73
2022/04/10 10:16:54;;;;;;;;;;;;;;;;;;4843895;29;20047;-69
2022/04/10 10:19:20;;;;;;;;;;;;;;;;;;4844077;29;20370;-67
2022/04/10 10:21:46;;;;;;;;;;;435.30;1305.60;;;;;;4845121;29;19952;-67
2022/04/10 10:24:12;;;;;;;;;;;435.30;1587.20;;;;;;4845462;29;19920;-67
2022/04/10 10:26:43;;;;;;;;;;;410.30;1305.60;;;;;;4845516;29;19908;-67
2022/04/10 10:29:16;;;;;;;;;;;410.20;1331.20;;;;;;4845863;29;20002;-75
2022/04/10 10:31:42;;;;;;;;;;;410.00;1331.20;;;;;;4828891;29;19964;-68
2022/04/10 10:34:08;;;;;;;;;;;410.20;1356.80;;;;;;4845312;29;19912;-69
2022/04/10 10:36:35;;;;;;;;;;;410.00;1331.20;;;;;;4845576;29;19909;-70
2022/04/10 10:39:03;;;;;;;;;;;410.00;1305.60;;;;;;4845374;29;20366;-67
2022/04/10 10:41:29;;;;;;;;;;;410.10;1280.00;;;;;;4828797;29;19912;-67
2022/04/10 10:43:56;;;;;;;;;;;435.30;1356.80;;;;;;4845145;29;20413;-67
2022/04/10 10:46:34;;;;;;;;;;;410.10;1382.40;;;;;;4845501;29;19908;-68
2022/04/10 10:49:00;;;;;;;;;;;;;;;;;;4845427;29;19995;-68
2022/04/10 10:51:27;;;;;;;;;;;;;;;;;;4844664;29;20020;-68
2022/04/10 10:53:53;;;;;;;;;;;410.30;1484.80;;;;;;4845093;29;19912;-67
2022/04/10 10:56:27;;;;;;;;;;;410.30;1459.20;;;;;;4844982;29;20049;-67
2022/04/10 10:58:54;;;;;;;;;;;410.10;1459.20;;;;;;4844999;29;19908;-67
2022/04/10 11:01:23;;;;;;;;;;;384.30;1510.40;;;;;;4844928;29;19909;-69
2022/04/10 11:04:09;;;;;;;;;;;384.00;1536.00;;;;;;4844293;29;20007;-69
2022/04/10 11:06:45;;;;;;;;;;;359.00;1561.60;;;;;;4844417;29;19948;-74
2022/04/10 11:09:19;;;;;;;;;;;358.90;1510.40;;;;;;4844724;29;19913;-68
2022/04/10 11:11:45;;;;;;;;;;;358.90;1484.80;;;;;;4844570;29;20021;-76
2022/04/10 11:14:30;;;;;;;;;;;359.10;1510.40;;;;;;4844536;29;19995;-76
2022/04/10 11:17:06;;;;;;;;;;;359.10;1510.40;;;;;;4844552;29;20022;-69
2022/04/10 11:19:32;;;;;;;;;;;359.10;1510.40;;;;;;4844597;29;19915;-80
2022/04/10 11:21:57;;;;;;;;;;;358.80;1561.60;;;;;;4844525;29;19908;-72
2022/04/10 11:24:23;;;;;;;;;;;;;;;;;;4844365;29;19920;-69
2022/04/10 11:26:49;;;;;;;;;;;;;;;;;;4844385;29;19912;-69
2022/04/10 11:29:16;;;;;;;;;;;;;;;;;;4844377;29;19944;-69
2022/04/10 11:31:47;;;;;;;;;;;359.10;1587.20;;;;;;4844303;29;20289;-78
2022/04/10 11:34:20;;;;;;;;;;;359.30;1510.40;;;;;;4844206;29;20366;-68
2022/04/10 11:36:52;;;;;;;;;;;384.60;1484.80;;;;;;4844280;29;19909;-76
2022/04/10 11:39:30;;;;;;;;;;;384.30;1433.60;;;;;;4844249;29;20362;-77
2022/04/10 11:42:05;;;;;;;;;;;384.20;1433.60;;;;;;4844052;29;20396;-72
2022/04/10 11:44:31;;;;;;;;;;;384.00;1408.00;;;;;;4843986;29;19916;-76
2022/04/10 11:47:00;;;;;;;;;;;384.00;1408.00;;;;;;4844012;29;20286;-70
2022/04/10 11:49:26;;;;;;;;;;;359.10;1433.60;;;;;;4844087;29;19908;-70
2022/04/10 11:51:56;;;;;;;;;;;359.20;1484.80;;;;;;4827429;29;20011;-69
2022/04/10 11:54:22;;;;;;;;;;;384.10;1459.20;;;;;;4843895;29;19912;-75
2022/04/10 11:56:48;;;;;;;;;;;409.70;1433.60;;;;;;4843795;29;19915;-76
2022/04/10 11:59:14;;;;;;;;;;;409.70;1408.00;;;;;;4843641;29;19909;-69
2022/04/10 12:01:41;;;;;;;;;;;;;;;;;;4843203;29;20362;-70
2022/04/10 12:04:07;;;;;;;;;;;410.00;1331.20;;;;;;4843896;29;19916;-69
2022/04/10 12:06:32;;;;;;;;;;;409.70;1433.60;;;;;;4843847;29;19931;-68
2022/04/10 12:08:58;;;;;;;;;;;384.00;1433.60;;;;;;4843976;29;19955;-67
2022/04/10 12:11:25;;;;;;;;;;;;;;;;;;4843846;29;19972;-70
2022/04/10 12:13:51;;;;;;;;;;;;;;;;;;4843883;29;19957;-68
2022/04/10 12:16:17;;;;;;;;;;;;;;;;;;4843645;29;19908;-85
2022/04/10 12:18:43;;;;;;;;;;;;;;;;;;4842394;29;19909;-68
2022/04/10 12:21:09;;;;;;;;;;;;;;;;;;4843545;29;19967;-83
2022/04/10 12:23:34;;;;;;;;;;;384.00;1382.40;;;;;;4843539;29;20407;-75
2022/04/10 12:26:01;;;;;;;;;;;359.30;1536.00;;;;;;4843520;29;19909;-78
2022/04/10 12:28:28;;;;;;;;;;;384.30;1382.40;;;;;;4843499;29;20255;-69
2022/04/10 12:30:54;;;;;;;;;;;409.70;1382.40;;;;;;4843393;29;20319;-72
2022/04/10 12:33:20;;;;;;;;;;;;;;;;;;4827051;29;19908;-67
2022/04/10 12:35:46;;;;;;;;;;;;;;;;;;4843350;29;19930;-68
2022/04/10 12:38:13;;;;;;;;;;;410.30;1331.20;;;;;;4842347;29;19915;-68
2022/04/10 12:40:39;;;;;;;;;;;410.30;1331.20;;;;;;4842374;29;19948;-68
2022/04/10 12:43:05;;;;;;;;;;;436.00;1305.60;;;;;;4842363;29;19948;-68
2022/04/10 12:45:32;;;;;;;;;;;435.80;1254.40;;;;;;4842398;29;19919;-69
2022/04/10 12:47:58;;;;;;;;;;;435.80;1280.00;;;;;;4843304;29;20350;-69
2022/04/10 12:50:25;;;;;;;;;;;435.90;1280.00;;;;;;4843097;29;19938;-78
2022/04/10 12:52:55;;;;;;;;;;;435.40;1305.60;;;;;;4843434;29;19916;-70
2022/04/10 12:55:30;;;;;;;;;;;435.20;1305.60;;;;;;4843234;29;19908;-68
2022/04/10 12:57:57;;;;;;;;;;;410.40;1305.60;;;;;;4839294;29;20315;-69
2022/04/10 13:00:26;;;;;;;;;;;409.80;1280.00;;;;;;4843067;29;19908;-73
2022/04/10 13:02:52;;;;;;;;;;;409.70;1280.00;;;;;;4843026;29;19908;-69
2022/04/10 13:05:18;;;;;;;;;;;409.80;1331.20;;;;;;4843155;29;19916;-69
2022/04/10 13:07:58;;;;;;;;;;;409.80;1331.20;;;;;;4842964;29;20363;-70
2022/04/10 13:10:24;;;;;;;;;;;384.80;1305.60;;;;;;4826647;29;19908;-76
2022/04/10 13:12:49;;;;;;;;;;;384.10;1356.80;;;;;;4843368;29;19912;-69
2022/04/10 13:15:15;;;;;;;;;;;;;;;;;;4847161;29;19916;-80
2022/04/10 13:17:43;;;;;;;;;;;359.00;1433.60;;;;;;4847015;29;19908;-73
2022/04/10 13:20:10;;;;;;;;;;;358.80;1484.80;;;;;;4846764;29;19941;-69
2022/04/10 13:22:36;;;;;;;;;;;;;;;;;;4846642;29;19909;-71
2022/04/10 13:25:02;;;;;;;;;;;;;;;;;;4836804;29;20458;-81
2022/04/10 13:27:28;;;;;;;;;;;;;;;;;;4832145;29;20457;-69
2022/04/10 13:29:54;;;;;;;;;;;;;;;;;;4846519;29;19968;-79
2022/04/10 13:32:20;;;;;;;;;;;;;;;;;;4846445;29;19909;-69
2022/04/10 13:34:46;;;;;;;;;;;;;;;;;;4846307;29;19915;-76
2022/04/10 13:37:12;;;;;;;;;;;384.50;1356.80;;;;;;4837941;29;19912;-70
2022/04/10 13:39:38;;;;;;;;;;;;;;;;;;4827951;29;19931;-70
2022/04/10 13:42:04;;;;;;;;;;;359.20;1408.00;;;;;;4827865;29;19916;-69
2022/04/10 13:44:30;;;;;;;;;;;359.10;1484.80;;;;;;4827779;29;19946;-69
2022/04/10 13:46:56;;;;;;;;;;;358.60;1484.80;;;;;;4827861;29;19908;-70
2022/04/10 13:49:22;;;;;;;;;;;;;;;;;;4827799;29;19909;-69
2022/04/10 13:51:48;;;;;;;;;;;;;;;;;;4827579;29;19921;-69
2022/04/10 13:54:14;;;;;;;;;;;;;;;;;;4811278;29;19971;-70
2022/04/10 13:56:40;;;;;;;;;;;;;;;;;;4827665;29;20307;-69
2022/04/10 13:59:06;;;;;;;;;;;;;;;;;;4827658;29;19908;-69
2022/04/10 14:01:32;;;;;;;;;;;;;;;;;;4827635;29;19915;-69
2022/04/10 14:03:58;;;;;;;;;;;;;;;;;;4827467;29;19917;-69
2022/04/10 14:06:24;;;;;;;;;;;;;;;;;;4827730;29;19909;-69
2022/04/10 14:08:50;;;;;;;;;;;;;;;;;;4827386;29;19973;-70
2022/04/10 14:11:16;;;;;;;;;;;;;;;;;;4811924;29;19909;-70
2022/04/10 14:13:41;;;;;;;;;;;359.10;1484.80;;;;;;4827420;29;19909;-69
2022/04/10 14:16:07;;;;;;;;;;;384.20;1459.20;;;;;;4827328;29;19992;-68
2022/04/10 14:18:33;;;;;;;;;;;384.00;1433.60;;;;;;4827329;29;20008;-69
2022/04/10 14:20:59;;;;;;;;;;;384.30;1408.00;;;;;;4827266;29;19913;-69
2022/04/10 14:23:24;;;;;;;;;;;384.50;1408.00;;;;;;4827149;29;19909;-70
2022/04/10 14:25:50;;;;;;;;;;;384.10;1356.80;;;;;;4826670;29;19915;-69
2022/04/10 14:28:16;;;;;;;;;;;384.00;1356.80;;;;;;4827221;29;20428;-69
2022/04/10 14:30:42;;;;;;;;;;;358.90;1510.40;;;;;;4827168;29;19988;-70
2022/04/10 14:33:08;;;;;;;;;;;358.60;1536.00;;;;;;4827092;29;19991;-69
2022/04/10 14:35:33;;;;;;;;;;;333.60;1536.00;;;;;;4827086;29;20400;-69
2022/04/10 14:37:59;;;;;;;;;;;333.40;1536.00;;;;;;4827300;29;20366;-71
2022/04/10 14:40:25;;;;;;;;;;;332.90;1561.60;;;;;;4827001;29;19936;-69
2022/04/10 14:42:51;;;;;;;;;;;308.00;1536.00;;;;;;4826951;29;20423;-68
2022/04/10 14:45:17;;;;;;;;;;;308.00;1561.60;;;;;;4826849;29;19916;-69
2022/04/10 14:47:42;;;;;;;;;;;307.90;1587.20;;;;;;4826847;29;19915;-68
2022/04/10 14:50:08;;;;;;;;;;;307.80;1612.80;;;;;;4826703;29;19960;-68
2022/04/10 14:52:34;;;;;;;;;;;307.70;1587.20;;;;;;4827048;29;19977;-77
2022/04/10 14:55:00;;;;;;;;;;;307.50;1587.20;;;;;;4826733;29;20255;-69
2022/04/10 14:57:25;;;;;;;;;;;307.40;1792.00;;;;;;4826994;29;19986;-68
2022/04/10 14:59:51;;;;;;;;;;;307.30;1766.40;;;;;;4826747;29;19915;-69
2022/04/10 15:02:17;;;;;;;;;;;307.30;1792.00;;;;;;4826687;29;20381;-81
2022/04/10 15:04:45;;;;;;;;;;;307.30;1766.40;;;;;;4826504;29;19917;-69
2022/04/10 15:07:11;;;;;;;;;;;307.40;1766.40;;;;;;4826535;29;20383;-69
2022/04/10 15:09:36;;;;;;;;;;;307.40;1740.80;;;;;;4810272;29;19916;-68
2022/04/10 15:12:04;;;;;;;;;;;307.40;1766.40;;;;;;4826683;29;20282;-68
2022/04/10 15:14:29;;;;;;;;;;;307.50;1766.40;;;;;;4826838;29;20259;-68
2022/04/10 15:16:55;;;;;;;;;;;307.40;1740.80;;;;;;4809707;29;19909;-69
2022/04/10 15:19:21;;;;;;;;;;;307.40;1766.40;;;;;;4826303;29;19909;-80
2022/04/10 15:21:47;;;;;;;;;;;307.50;1766.40;;;;;;4842132;29;19912;-70
2022/04/10 15:24:12;;;;;;;;;;;307.50;1766.40;;;;;;4843232;29;19916;-70
2022/04/10 15:26:45;;;;;;;;;;;307.70;1766.40;;;;;;4844204;29;20378;-70
2022/04/10 15:29:14;;;;;;;;;;;307.80;1792.00;;;;;;4842352;29;19908;-83
2022/04/10 15:31:40;;;;;;;;;;;307.80;1766.40;;;;;;4843978;29;19908;-81
2022/04/10 15:34:06;;;;;;;;;;;307.90;1766.40;;;;;;4844267;29;19916;-78